createdAt,value
2019-05-16T00:01:45.386Z,10.80
2019-05-16T00:04:11.828Z,10.80
2019-05-16T00:06:39.039Z,10.70
2019-05-16T00:09:08.013Z,10.70
2019-05-16T00:11:35.527Z,10.70
2019-05-16T00:14:02.921Z,10.60
2019-05-16T00:16:29.399Z,10.70
2019-05-16T00:18:55.733Z,10.70
2019-05-16T00:21:22.346Z,10.60
2019-05-16T00:23:48.839Z,10.70
2019-05-16T00:26:15.615Z,10.60
2019-05-16T00:28:42.154Z,10.60
2019-05-16T00:31:08.830Z,10.60
2019-05-16T00:33:38.021Z,10.70
2019-05-16T00:36:05.997Z,10.70
2019-05-16T00:38:33.140Z,10.70
2019-05-16T00:40:59.500Z,10.70
2019-05-16T00:43:25.878Z,10.70
2019-05-16T00:45:52.321Z,10.60
2019-05-16T00:48:18.750Z,10.60
2019-05-16T00:50:45.299Z,10.70
2019-05-16T00:53:11.752Z,10.60
2019-05-16T00:55:39.313Z,10.50
2019-05-16T00:58:08.672Z,10.50
2019-05-16T01:00:38.827Z,10.60
2019-05-16T01:03:05.325Z,10.60
2019-05-16T01:05:31.705Z,10.60
2019-05-16T01:07:59.031Z,10.60
2019-05-16T01:10:25.461Z,10.50
2019-05-16T01:12:51.890Z,10.50
2019-05-16T01:15:20.125Z,10.50
2019-05-16T01:17:48.335Z,10.60
2019-05-16T01:20:14.728Z,10.60
2019-05-16T01:22:41.072Z,10.60
2019-05-16T01:25:09.315Z,10.50
2019-05-16T01:27:35.821Z,10.50
2019-05-16T01:30:05.751Z,10.40
2019-05-16T01:32:32.314Z,10.40
2019-05-16T01:34:58.983Z,10.40
2019-05-16T01:37:27.898Z,10.40
2019-05-16T01:39:54.418Z,10.30
2019-05-16T01:42:20.996Z,10.30
2019-05-16T01:44:48.744Z,10.20
2019-05-16T01:47:15.186Z,10.30
2019-05-16T01:49:41.620Z,10.30
2019-05-16T01:52:08.611Z,10.20
2019-05-16T01:54:36.020Z,10.20
2019-05-16T01:57:02.526Z,10.10
2019-05-16T01:59:30.001Z,10.10
2019-05-16T02:02:00.609Z,10.20
2019-05-16T02:04:24.686Z,10.30
2019-05-16T02:06:54.672Z,10.20
2019-05-16T02:09:19.821Z,10.20
2019-05-16T02:11:48.093Z,10.20
2019-05-16T02:14:15.118Z,10.20
2019-05-16T02:16:43.527Z,10.20
2019-05-16T02:19:09.959Z,10.10
2019-05-16T02:21:38.855Z,10.10
2019-05-16T02:24:05.366Z,10.10
2019-05-16T02:26:31.792Z,10.00
2019-05-16T02:29:00.698Z,10.00
2019-05-16T02:31:26.510Z,10.00
2019-05-16T02:33:52.963Z,10.00
2019-05-16T02:36:21.636Z,10.00
2019-05-16T02:38:51.422Z,10.10
2019-05-16T02:41:15.876Z,10.10
2019-05-16T02:43:43.205Z,10.00
2019-05-16T02:46:12.007Z,10.00
2019-05-16T02:48:40.806Z,10.00
2019-05-16T02:51:06.256Z,10.00
2019-05-16T02:53:32.680Z,10.00
2019-05-16T02:56:01.332Z,9.90
2019-05-16T02:58:30.496Z,9.90
2019-05-16T03:00:55.621Z,10.00
2019-05-16T03:03:22.023Z,10.00
2019-05-16T03:05:50.752Z,10.00
2019-05-16T03:08:17.407Z,10.00
2019-05-16T03:10:43.832Z,9.90
2019-05-16T03:13:11.222Z,9.90
2019-05-16T03:15:40.478Z,9.90
2019-05-16T03:18:07.218Z,9.80
2019-05-16T03:20:33.687Z,9.90
2019-05-16T03:23:02.297Z,9.80
2019-05-16T03:25:31.059Z,9.80
2019-05-16T03:27:57.786Z,9.80
2019-05-16T03:30:24.310Z,9.70
2019-05-16T03:32:54.604Z,9.70
2019-05-16T03:35:23.985Z,9.70
2019-05-16T03:37:55.526Z,9.70
2019-05-16T03:40:22.095Z,9.70
2019-05-16T03:42:51.683Z,9.70
2019-05-16T03:45:16.613Z,9.80
2019-05-16T03:47:44.095Z,9.70
2019-05-16T03:50:11.276Z,9.70
2019-05-16T03:52:42.403Z,9.60
2019-05-16T03:55:06.121Z,9.70
2019-05-16T03:57:32.582Z,9.60
2019-05-16T04:00:00.617Z,9.60
2019-05-16T04:02:30.670Z,9.60
2019-05-16T04:04:55.551Z,9.60
2019-05-16T04:07:21.942Z,9.70
2019-05-16T04:09:50.732Z,9.70
2019-05-16T04:12:17.238Z,9.70
2019-05-16T04:14:43.624Z,9.70
2019-05-16T04:17:10.948Z,9.70
2019-05-16T04:19:41.343Z,9.70
2019-05-16T04:22:10.638Z,9.70
2019-05-16T04:24:37.017Z,9.70
2019-05-16T04:27:03.396Z,9.70
2019-05-16T04:29:31.934Z,9.70
2019-05-16T04:32:01.147Z,9.70
2019-05-16T04:34:26.604Z,9.60
2019-05-16T04:36:53.018Z,9.70
2019-05-16T04:39:20.856Z,9.70
2019-05-16T04:41:50.727Z,9.80
2019-05-16T04:44:15.713Z,9.80
2019-05-16T04:46:43.122Z,9.80
2019-05-16T04:49:11.211Z,9.80
2019-05-16T04:51:41.375Z,9.80
2019-05-16T04:54:11.074Z,9.90
2019-05-16T04:56:36.408Z,9.90
2019-05-16T04:59:02.895Z,9.90
2019-05-16T05:01:30.764Z,10.00
2019-05-16T05:04:06.186Z,10.20
2019-05-16T05:06:25.604Z,10.20
2019-05-16T05:08:58.488Z,10.40
2019-05-16T05:11:21.599Z,10.50
2019-05-16T05:13:50.456Z,10.60
2019-05-16T05:16:16.476Z,10.60
2019-05-16T05:18:42.932Z,10.60
2019-05-16T05:21:11.647Z,10.70
2019-05-16T05:23:40.495Z,10.70
2019-05-16T05:26:06.551Z,10.70
2019-05-16T05:28:33.121Z,10.80
2019-05-16T05:30:59.903Z,10.70
2019-05-16T05:33:26.444Z,10.80
2019-05-16T05:35:52.965Z,10.80
2019-05-16T05:38:21.201Z,10.90
2019-05-16T05:40:47.683Z,11.00
2019-05-16T05:43:14.166Z,11.10
2019-05-16T05:45:40.541Z,11.20
2019-05-16T05:48:06.831Z,11.30
2019-05-16T05:50:33.194Z,11.30
2019-05-16T05:53:01.448Z,11.40
2019-05-16T05:55:31.121Z,11.50
2019-05-16T05:57:56.290Z,11.90
2019-05-16T06:00:22.629Z,12.20
2019-05-16T06:02:50.807Z,12.40
2019-05-16T06:05:19.970Z,12.60
2019-05-16T06:07:45.441Z,12.80
2019-05-16T06:10:11.841Z,13.00
2019-05-16T06:12:40.559Z,13.30
2019-05-16T06:15:09.072Z,13.50
2019-05-16T06:17:34.794Z,13.60
2019-05-16T06:20:01.239Z,13.80
2019-05-16T06:22:29.887Z,14.00
2019-05-16T06:24:56.354Z,14.20
2019-05-16T06:27:22.775Z,14.40
2019-05-16T06:29:49.742Z,14.50
2019-05-16T06:32:16.181Z,14.70
2019-05-16T06:34:42.633Z,14.80
2019-05-16T06:37:09.848Z,14.90
2019-05-16T06:39:41.937Z,15.10
2019-05-16T06:42:05.528Z,15.20
2019-05-16T06:44:32.066Z,15.30
2019-05-16T06:47:14.940Z,15.40
2019-05-16T06:49:26.693Z,15.50
2019-05-16T06:51:53.237Z,15.70
2019-05-16T06:54:20.768Z,15.80
2019-05-16T06:56:47.260Z,15.90
2019-05-16T06:59:13.642Z,16.00
2019-05-16T07:01:40.563Z,16.10
2019-05-16T07:04:10.430Z,16.20
2019-05-16T07:06:54.942Z,16.30
2019-05-16T07:09:06.481Z,16.40
2019-05-16T07:11:32.921Z,16.40
2019-05-16T07:14:00.624Z,16.50
2019-05-16T07:16:27.120Z,16.60
2019-05-16T07:18:53.499Z,16.50
2019-05-16T07:21:20.302Z,16.50
2019-05-16T07:23:51.077Z,16.40
2019-05-16T07:26:17.673Z,16.20
2019-05-16T07:28:43.998Z,16.10
2019-05-16T07:31:17.474Z,16.30
2019-05-16T07:33:40.690Z,16.50
2019-05-16T07:36:09.748Z,16.60
2019-05-16T07:38:35.579Z,16.80
2019-05-16T07:41:01.944Z,17.00
2019-05-16T07:43:30.578Z,17.10
2019-05-16T07:45:56.814Z,17.20
2019-05-16T07:48:23.294Z,17.30
2019-05-16T07:50:50.041Z,17.30
2019-05-16T07:53:16.766Z,17.30
2019-05-16T07:55:43.175Z,17.50
2019-05-16T07:58:10.260Z,17.60
2019-05-16T08:00:49.428Z,17.70
2019-05-16T08:03:06.170Z,17.80
2019-05-16T08:05:33.403Z,17.90
2019-05-16T08:08:01.052Z,18.00
2019-05-16T08:10:38.105Z,18.00
2019-05-16T08:12:55.717Z,18.20
2019-05-16T08:15:22.260Z,18.20
2019-05-16T08:17:51.254Z,18.30
2019-05-16T08:20:16.880Z,18.20
2019-05-16T08:22:43.347Z,18.30
2019-05-16T08:25:11.628Z,18.40
2019-05-16T08:27:40.973Z,18.50
2019-05-16T08:30:10.980Z,18.50
2019-05-16T08:32:36.625Z,18.50
2019-05-16T08:35:05.179Z,18.60
2019-05-16T08:37:41.720Z,18.60
2019-05-16T08:40:03.504Z,18.60
2019-05-16T08:42:32.368Z,18.70
2019-05-16T08:45:01.153Z,18.70
2019-05-16T08:47:26.593Z,18.70
2019-05-16T08:49:52.957Z,18.60
2019-05-16T08:52:22.432Z,18.40
2019-05-16T08:54:51.039Z,18.30
2019-05-16T08:57:27.113Z,18.20
2019-05-16T08:59:44.861Z,18.00
2019-05-16T09:02:12.518Z,18.10
2019-05-16T09:04:44.132Z,18.20
2019-05-16T09:07:07.341Z,18.40
2019-05-16T09:09:44.059Z,18.40
2019-05-16T09:12:02.092Z,18.50
2019-05-16T09:14:35.162Z,18.50
2019-05-16T09:16:58.321Z,18.40
2019-05-16T09:19:27.368Z,18.50
2019-05-16T09:21:53.131Z,18.50
2019-05-16T09:24:20.057Z,18.50
2019-05-16T09:26:47.642Z,18.50
2019-05-16T09:29:16.699Z,18.40
2019-05-16T09:31:42.309Z,18.40
2019-05-16T09:34:08.749Z,18.50
2019-05-16T09:36:37.170Z,18.70
2019-05-16T09:39:08.400Z,18.80
2019-05-16T09:41:49.785Z,18.80
2019-05-16T09:44:03.086Z,18.80
2019-05-16T09:46:29.460Z,18.90
2019-05-16T09:49:14.832Z,19.00
2019-05-16T09:51:26.911Z,19.00
2019-05-16T09:53:53.299Z,19.00
2019-05-16T09:56:20.604Z,18.90
2019-05-16T09:58:47.097Z,18.90
2019-05-16T10:01:13.913Z,18.80
2019-05-16T10:03:40.364Z,18.60
2019-05-16T10:06:08.005Z,18.50
2019-05-16T10:08:37.257Z,18.50
2019-05-16T10:11:03.001Z,18.60
2019-05-16T10:13:29.673Z,18.70
2019-05-16T10:15:56.137Z,18.80
2019-05-16T10:18:22.742Z,18.70
2019-05-16T10:20:50.027Z,18.70
2019-05-16T10:23:18.148Z,18.70
2019-05-16T10:25:47.705Z,18.60
2019-05-16T10:28:17.404Z,18.60
2019-05-16T10:30:42.829Z,18.60
2019-05-16T10:33:09.251Z,18.50
2019-05-16T10:35:37.243Z,18.40
2019-05-16T10:38:05.818Z,18.60
2019-05-16T10:40:32.274Z,18.70
2019-05-16T10:42:58.654Z,18.80
2019-05-16T10:45:27.155Z,18.90
2019-05-16T10:47:53.363Z,19.00
2019-05-16T10:50:19.796Z,18.90
2019-05-16T10:52:48.931Z,18.80
2019-05-16T10:55:17.431Z,18.80
2019-05-16T10:57:43.022Z,18.80
2019-05-16T11:00:18.234Z,18.80
2019-05-16T11:02:38.672Z,18.70
2019-05-16T11:05:22.456Z,18.50
2019-05-16T11:07:33.511Z,18.30
2019-05-16T11:10:03.499Z,18.30
2019-05-16T11:12:45.205Z,18.40
2019-05-16T11:14:56.368Z,18.50
2019-05-16T11:17:22.775Z,18.50
2019-05-16T11:19:49.161Z,18.70
2019-05-16T11:22:16.513Z,18.60
2019-05-16T11:24:42.964Z,18.60
2019-05-16T11:27:09.309Z,18.60
2019-05-16T11:29:36.773Z,18.70
2019-05-16T11:32:03.190Z,18.70
2019-05-16T11:34:29.592Z,18.60
2019-05-16T11:36:56.982Z,18.60
2019-05-16T11:39:23.457Z,18.70
2019-05-16T11:41:49.894Z,18.70
2019-05-16T11:44:17.779Z,18.60
2019-05-16T11:46:44.205Z,18.60
2019-05-16T11:49:10.852Z,18.60
2019-05-16T11:51:38.400Z,18.60
2019-05-16T11:54:06.854Z,18.70
2019-05-16T11:56:33.005Z,18.70
2019-05-16T11:58:59.328Z,18.90
2019-05-16T12:01:27.463Z,18.80
2019-05-16T12:03:54.006Z,18.80
2019-05-16T12:06:21.394Z,18.80
2019-05-16T12:08:47.769Z,18.60
2019-05-16T12:11:14.172Z,18.50
2019-05-16T12:13:40.513Z,18.50
2019-05-16T12:16:07.758Z,18.50
2019-05-16T12:18:34.253Z,18.40
2019-05-16T12:21:00.828Z,18.40
2019-05-16T12:23:27.734Z,18.40
2019-05-16T12:25:56.496Z,18.30
2019-05-16T12:28:24.323Z,18.20
2019-05-16T12:30:51.690Z,18.20
2019-05-16T12:33:18.886Z,18.10
2019-05-16T12:35:47.408Z,18.10
2019-05-16T12:38:13.672Z,18.10
2019-05-16T12:40:40.049Z,18.10
2019-05-16T12:43:07.752Z,18.20
2019-05-16T12:45:34.378Z,18.10
2019-05-16T12:48:01.778Z,18.10
2019-05-16T12:50:29.024Z,18.10
2019-05-16T12:52:56.903Z,18.20
2019-05-16T12:55:23.395Z,18.30
2019-05-16T12:57:50.362Z,18.40
2019-05-16T13:00:19.162Z,18.40
2019-05-16T13:02:47.300Z,18.40
2019-05-16T13:05:13.911Z,18.30
2019-05-16T13:07:40.333Z,18.30
2019-05-16T13:10:06.741Z,18.30
2019-05-16T13:12:34.181Z,18.30
2019-05-16T13:15:00.620Z,18.30
2019-05-16T13:17:27.492Z,18.20
2019-05-16T13:19:54.053Z,18.20
2019-05-16T13:22:20.479Z,18.10
2019-05-16T13:24:47.896Z,18.20
2019-05-16T13:27:20.064Z,18.20
2019-05-16T13:29:42.780Z,18.20
2019-05-16T13:32:10.099Z,18.20
2019-05-16T13:34:38.334Z,18.20
2019-05-16T13:37:07.369Z,18.20
2019-05-16T13:39:32.966Z,18.20
2019-05-16T13:41:59.549Z,18.20
2019-05-16T13:44:27.458Z,18.20
2019-05-16T13:46:54.079Z,18.20
2019-05-16T13:49:20.418Z,18.30
2019-05-16T13:51:46.843Z,18.30
2019-05-16T13:54:13.386Z,18.40
2019-05-16T13:56:40.182Z,18.40
2019-05-16T13:59:07.738Z,18.40
2019-05-16T14:01:36.747Z,18.40
2019-05-16T14:04:02.600Z,18.30
2019-05-16T14:06:28.986Z,18.30
2019-05-16T14:08:56.799Z,18.30
2019-05-16T14:11:23.293Z,18.20
2019-05-16T14:13:49.811Z,18.10
2019-05-16T14:16:18.047Z,18.10
2019-05-16T14:18:46.829Z,18.10
2019-05-16T14:21:13.371Z,18.20
2019-05-16T14:23:39.804Z,18.10
2019-05-16T14:26:07.071Z,18.10
2019-05-16T14:28:33.933Z,18.10
2019-05-16T14:31:00.466Z,18.10
2019-05-16T14:33:28.024Z,18.10
2019-05-16T14:35:56.389Z,18.10
2019-05-16T14:38:22.717Z,18.20
2019-05-16T14:40:50.302Z,18.20
2019-05-16T14:43:17.236Z,18.20
2019-05-16T14:45:46.732Z,18.20
2019-05-16T14:48:13.001Z,18.20
2019-05-16T14:50:39.389Z,18.20
2019-05-16T14:53:07.449Z,18.30
2019-05-16T14:55:37.805Z,18.20
2019-05-16T14:58:03.149Z,18.20
2019-05-16T15:00:30.555Z,18.10
2019-05-16T15:02:58.919Z,18.20
2019-05-16T15:05:25.395Z,18.20
2019-05-16T15:07:52.880Z,18.10
2019-05-16T15:10:19.357Z,18.20
2019-05-16T15:12:47.076Z,18.10
2019-05-16T15:15:21.224Z,18.10
2019-05-16T15:17:42.125Z,18.10
2019-05-16T15:20:08.536Z,18.10
2019-05-16T15:22:38.341Z,18.10
2019-05-16T15:25:07.768Z,18.10
2019-05-16T15:27:33.261Z,18.10
2019-05-16T15:29:59.613Z,18.10
2019-05-16T15:32:31.582Z,18.10
2019-05-16T15:34:57.555Z,18.10
2019-05-16T15:37:23.938Z,18.10
2019-05-16T15:39:53.959Z,18.10
2019-05-16T15:42:18.514Z,18.10
2019-05-16T15:44:44.861Z,18.10
2019-05-16T15:47:11.548Z,18.00
2019-05-16T15:49:37.946Z,18.00
2019-05-16T15:52:07.347Z,18.00
2019-05-16T15:54:33.690Z,18.00
2019-05-16T15:57:00.093Z,18.00
2019-05-16T15:59:27.222Z,18.00
2019-05-16T16:01:53.751Z,18.00
2019-05-16T16:04:20.360Z,18.00
2019-05-16T16:06:47.379Z,18.00
2019-05-16T16:09:17.169Z,18.00
2019-05-16T16:11:43.330Z,18.00
2019-05-16T16:14:09.777Z,18.00
2019-05-16T16:16:36.307Z,18.10
2019-05-16T16:19:03.137Z,18.10
2019-05-16T16:21:29.682Z,18.00
2019-05-16T16:23:57.325Z,18.00
2019-05-16T16:26:23.791Z,18.00
2019-05-16T16:28:50.294Z,18.00
2019-05-16T16:31:17.050Z,18.00
2019-05-16T16:33:43.456Z,18.00
2019-05-16T16:36:10.205Z,18.00
2019-05-16T16:38:37.200Z,18.00
2019-05-16T16:41:03.895Z,18.00
2019-05-16T16:43:30.294Z,18.00
2019-05-16T16:46:06.230Z,18.00
2019-05-16T16:48:26.648Z,18.00
2019-05-16T16:50:53.186Z,18.00
2019-05-16T16:53:19.802Z,18.10
2019-05-16T16:55:47.599Z,18.10
2019-05-16T16:58:14.102Z,18.00
2019-05-16T17:00:40.517Z,18.10
2019-05-16T17:03:10.381Z,18.10
2019-05-16T17:05:37.201Z,18.00
2019-05-16T17:08:03.726Z,18.00
2019-05-16T17:10:31.218Z,18.10
2019-05-16T17:12:57.824Z,18.00
2019-05-16T17:15:27.200Z,18.00
2019-05-16T17:17:53.408Z,18.00
2019-05-16T17:20:19.821Z,18.00
2019-05-16T17:22:46.809Z,17.90
2019-05-16T17:25:14.628Z,17.90
2019-05-16T17:27:41.175Z,17.90
2019-05-16T17:30:13.249Z,17.90
2019-05-16T17:32:39.681Z,17.90
2019-05-16T17:35:06.792Z,17.90
2019-05-16T17:37:37.481Z,17.90
2019-05-16T17:40:04.288Z,17.80
2019-05-16T17:42:37.365Z,17.80
2019-05-16T17:45:04.354Z,17.80
2019-05-16T17:47:31.034Z,17.80
2019-05-16T17:49:57.892Z,17.80
2019-05-16T17:52:27.159Z,17.80
2019-05-16T17:54:53.355Z,17.80
2019-05-16T17:57:19.958Z,17.80
2019-05-16T17:59:47.977Z,17.80
2019-05-16T18:02:17.104Z,17.70
2019-05-16T18:04:43.032Z,17.70
2019-05-16T18:07:09.589Z,17.60
2019-05-16T18:09:36.846Z,17.60
2019-05-16T18:12:03.644Z,17.60
2019-05-16T18:14:31.917Z,17.60
2019-05-16T18:17:01.907Z,17.60
2019-05-16T18:19:26.601Z,17.50
2019-05-16T18:21:53.108Z,17.60
2019-05-16T18:24:19.468Z,17.50
2019-05-16T18:26:45.879Z,17.50
2019-05-16T18:29:12.291Z,17.50
2019-05-16T18:31:38.991Z,17.40
2019-05-16T18:34:07.357Z,17.40
2019-05-16T18:36:33.615Z,17.30
2019-05-16T18:39:01.032Z,17.30
2019-05-16T18:41:27.515Z,17.30
2019-05-16T18:43:56.592Z,17.40
2019-05-16T18:46:23.008Z,17.40
2019-05-16T18:48:49.433Z,17.30
2019-05-16T18:51:15.847Z,17.30
2019-05-16T18:53:42.128Z,17.20
2019-05-16T18:56:08.440Z,17.20
2019-05-16T18:58:37.032Z,17.20
2019-05-16T19:01:03.123Z,17.10
2019-05-16T19:03:29.793Z,17.00
2019-05-16T19:05:57.996Z,17.00
2019-05-16T19:08:24.376Z,17.00
2019-05-16T19:10:50.748Z,17.00
2019-05-16T19:13:17.536Z,16.90
2019-05-16T19:15:46.592Z,16.90
2019-05-16T19:18:13.070Z,16.90
2019-05-16T19:20:39.530Z,16.90
2019-05-16T19:23:07.486Z,16.90
2019-05-16T19:25:34.202Z,17.00
2019-05-16T19:28:00.969Z,16.90
2019-05-16T19:30:27.374Z,16.90
2019-05-16T19:32:53.900Z,16.80
2019-05-16T19:35:20.308Z,16.80
2019-05-16T19:37:47.179Z,16.80
2019-05-16T19:40:17.194Z,16.80
2019-05-16T19:42:43.721Z,16.80
2019-05-16T19:45:10.160Z,16.80
2019-05-16T19:47:40.841Z,16.70
2019-05-16T19:50:06.648Z,16.70
2019-05-16T19:52:33.093Z,16.60
2019-05-16T19:54:59.412Z,16.60
2019-05-16T19:57:26.602Z,16.60
2019-05-16T19:59:53.016Z,16.50
2019-05-16T20:02:19.500Z,16.50
2019-05-16T20:04:47.137Z,16.50
2019-05-16T20:07:13.650Z,16.50
2019-05-16T20:09:40.241Z,16.50
2019-05-16T20:12:07.869Z,16.50
2019-05-16T20:14:36.521Z,16.50
2019-05-16T20:17:02.552Z,16.50
2019-05-16T20:19:29.651Z,16.50
2019-05-16T20:21:58.058Z,16.40
2019-05-16T20:24:24.523Z,16.50
2019-05-16T20:26:51.018Z,16.40
2019-05-16T20:29:17.554Z,16.40
2019-05-16T20:31:43.953Z,16.40
2019-05-16T20:34:12.255Z,16.50
2019-05-16T20:36:38.869Z,16.50
2019-05-16T20:39:08.579Z,16.50
2019-05-16T20:41:36.861Z,16.30
2019-05-16T20:44:06.452Z,16.40
2019-05-16T20:46:33.681Z,16.40
2019-05-16T20:49:00.214Z,16.30
2019-05-16T20:51:27.016Z,16.30
2019-05-16T20:53:53.587Z,16.40
2019-05-16T20:56:21.024Z,16.30
2019-05-16T20:58:48.683Z,16.10
2019-05-16T21:01:17.275Z,16.00
2019-05-16T21:03:43.513Z,16.00
2019-05-16T21:06:09.907Z,16.00
2019-05-16T21:08:37.086Z,16.00
2019-05-16T21:11:06.491Z,15.90
2019-05-16T21:13:32.870Z,15.90
2019-05-16T21:15:59.312Z,15.90
2019-05-16T21:18:26.740Z,15.80
2019-05-16T21:20:53.123Z,15.80
2019-05-16T21:23:19.675Z,15.80
2019-05-16T21:25:46.756Z,15.80
2019-05-16T21:28:13.354Z,15.80
2019-05-16T21:30:39.766Z,15.70
2019-05-16T21:33:07.098Z,15.80
2019-05-16T21:35:33.530Z,15.70
2019-05-16T21:37:59.954Z,15.70
2019-05-16T21:40:26.712Z,15.70
2019-05-16T21:42:58.456Z,15.50
2019-05-16T21:45:23.043Z,15.60
2019-05-16T21:47:49.634Z,15.70
2019-05-16T21:50:16.312Z,15.70
2019-05-16T21:52:47.001Z,15.50
2019-05-16T21:55:14.496Z,15.50
2019-05-16T21:57:41.806Z,15.50
2019-05-16T22:00:39.617Z,15.40
2019-05-16T22:03:07.004Z,15.30
2019-05-16T22:05:33.333Z,15.30
2019-05-16T22:07:59.926Z,15.30
2019-05-16T22:10:26.752Z,15.30
2019-05-16T22:12:57.161Z,15.20
2019-05-16T22:15:23.782Z,15.30
2019-05-16T22:17:50.264Z,15.20
2019-05-16T22:20:16.801Z,15.20
2019-05-16T22:22:43.345Z,15.00
2019-05-16T22:25:09.986Z,15.10
2019-05-16T22:27:36.596Z,15.10
2019-05-16T22:30:07.103Z,15.10
2019-05-16T22:32:33.437Z,15.10
2019-05-16T22:35:00.057Z,15.00
2019-05-16T22:37:26.669Z,15.00
2019-05-16T22:39:53.047Z,15.00
2019-05-16T22:42:19.513Z,14.90
2019-05-16T22:44:47.891Z,14.90
2019-05-16T22:47:16.999Z,14.90
2019-05-16T22:49:42.616Z,14.90
2019-05-16T22:52:09.030Z,14.90
2019-05-16T22:54:37.101Z,14.90
2019-05-16T22:57:03.888Z,14.80
2019-05-16T22:59:30.883Z,14.80
2019-05-16T23:01:57.284Z,14.80
2019-05-16T23:04:23.701Z,14.80
2019-05-16T23:06:51.232Z,14.80
2019-05-16T23:09:17.611Z,14.80
2019-05-16T23:11:43.953Z,14.70
2019-05-16T23:14:10.436Z,14.60
2019-05-16T23:16:37.327Z,14.70
2019-05-16T23:19:03.945Z,14.60
2019-05-16T23:21:30.407Z,14.50
2019-05-16T23:23:57.139Z,14.60
2019-05-16T23:26:23.661Z,14.60
2019-05-16T23:28:50.340Z,14.50
2019-05-16T23:31:16.839Z,14.40
2019-05-16T23:33:43.193Z,14.40
2019-05-16T23:36:09.613Z,14.40
2019-05-16T23:38:36.856Z,14.40
2019-05-16T23:41:03.330Z,14.40
2019-05-16T23:43:29.758Z,14.40
2019-05-16T23:45:58.011Z,14.40
2019-05-16T23:48:24.513Z,14.40
2019-05-16T23:50:51.928Z,14.40
2019-05-16T23:53:18.325Z,14.40
2019-05-16T23:55:46.761Z,14.30
2019-05-16T23:58:13.141Z,14.20
